Terminal Aerodrome Forecast
Issued by NWS Charleston, WV

Current Version | Previous Version | Graphics & Text | Print | Product List | Glossary On
Versions: 1 2 3 4 5 6 7 8 9 10 11 12 13 14 15 16 17 18 19 20 21 22 23 24 25 26 27 28
000
FTUS41 KRLX 162101 AAA
TAFPKB
TAF AMD
KPKB 162101Z 1621/1718 VRB04KT P6SM SCT040
     FM162300 00000KT P6SM SKC
     FM170500 00000KT 2SM BR SCT001
     FM170600 00000KT 1/4SM FG VV001
     FM171300 00000KT 1SM BR BKN002
     FM171400 00000KT P6SM SKC
     FM171700 VRB03KT P6SM SCT050=

USA.gov is the U.S. government's official web portal to all federal, state and local government web resources and services.